sensor_id;sensor_type;location;lat;lon;timestamp;pressure;altitude;pressure_sealevel;temperature;humidity
21100;BME280;10708;50.824;4.408;2023-01-27T00:00:43;101459.25;;;5.50;100.00
21100;BME280;10708;50.824;4.408;2023-01-27T00:05:45;101456.69;;;5.48;100.00
21100;BME280;10708;50.824;4.408;2023-01-27T00:10:49;101452.28;;;5.50;100.00
21100;BME280;10708;50.824;4.408;2023-01-27T00:16:12;101447.97;;;5.46;100.00
21100;BME280;10708;50.824;4.408;2023-01-27T00:21:14;101445.34;;;5.43;100.00
21100;BME280;10708;50.824;4.408;2023-01-27T00:26:35;101450.56;;;5.43;100.00
21100;BME280;10708;50.824;4.408;2023-01-27T00:31:38;101441.84;;;5.43;100.00
21100;BME280;10708;50.824;4.408;2023-01-27T00:36:57;101434.88;;;5.42;100.00
21100;BME280;10708;50.824;4.408;2023-01-27T00:42:01;101429.66;;;5.43;100.00
21100;BME280;10708;50.824;4.408;2023-01-27T00:47:03;101431.41;;;5.43;100.00
21100;BME280;10708;50.824;4.408;2023-01-27T00:52:06;101426.22;;;5.38;100.00
21100;BME280;10708;50.824;4.408;2023-01-27T00:57:10;101429.69;;;5.37;100.00
21100;BME280;10708;50.824;4.408;2023-01-27T01:02:12;101430.53;;;5.41;100.00
21100;BME280;10708;50.824;4.408;2023-01-27T01:07:14;101425.31;;;5.44;100.00
21100;BME280;10708;50.824;4.408;2023-01-27T01:12:18;101424.44;;;5.42;100.00
21100;BME280;10708;50.824;4.408;2023-01-27T01:17:20;101416.59;;;5.40;100.00
21100;BME280;10708;50.824;4.408;2023-01-27T01:22:23;101420.94;;;5.41;100.00
21100;BME280;10708;50.824;4.408;2023-01-27T01:27:27;101420.09;;;5.35;100.00
21100;BME280;10708;50.824;4.408;2023-01-27T01:32:29;101424.44;;;5.46;100.00
21100;BME280;10708;50.824;4.408;2023-01-27T01:37:31;101420.13;;;5.38;100.00
21100;BME280;10708;50.824;4.408;2023-01-27T01:42:54;101426.19;;;5.31;100.00
21100;BME280;10708;50.824;4.408;2023-01-27T01:47:58;101422.72;;;5.29;100.00
21100;BME280;10708;50.824;4.408;2023-01-27T01:53:01;101434.88;;;5.30;100.00
21100;BME280;10708;50.824;4.408;2023-01-27T01:58:09;101427.94;;;5.27;100.00
21100;BME280;10708;50.824;4.408;2023-01-27T02:03:13;101430.53;;;5.30;100.00
21100;BME280;10708;50.824;4.408;2023-01-27T02:08:20;101422.72;;;5.24;100.00
21100;BME280;10708;50.824;4.408;2023-01-27T02:13:25;101431.44;;;5.18;100.00
21100;BME280;10708;50.824;4.408;2023-01-27T02:18:27;101430.56;;;5.23;100.00
21100;BME280;10708;50.824;4.408;2023-01-27T02:23:39;101427.94;;;5.23;100.00
21100;BME280;10708;50.824;4.408;2023-01-27T02:28:50;101426.19;;;5.23;100.00
21100;BME280;10708;50.824;4.408;2023-01-27T02:33:56;101445.34;;;5.14;100.00
21100;BME280;10708;50.824;4.408;2023-01-27T02:39:01;101438.38;;;5.12;100.00
21100;BME280;10708;50.824;4.408;2023-01-27T02:44:06;101431.44;;;5.15;100.00
21100;BME280;10708;50.824;4.408;2023-01-27T02:49:10;101445.34;;;5.11;100.00
21100;BME280;10708;50.824;4.408;2023-01-27T02:54:12;101438.38;;;5.10;100.00
21100;BME280;10708;50.824;4.408;2023-01-27T02:59:16;101440.97;;;5.01;100.00
21100;BME280;10708;50.824;4.408;2023-01-27T03:04:18;101439.25;;;5.02;100.00
21100;BME280;10708;50.824;4.408;2023-01-27T03:09:20;101445.34;;;4.93;100.00
21100;BME280;10708;50.824;4.408;2023-01-27T03:14:24;101435.78;;;4.95;100.00
21100;BME280;10708;50.824;4.408;2023-01-27T03:19:44;101442.75;;;4.98;100.00
21100;BME280;10708;50.824;4.408;2023-01-27T03:24:53;101451.41;;;4.91;100.00
21100;BME280;10708;50.824;4.408;2023-01-27T03:29:56;101451.41;;;4.85;100.00
21100;BME280;10708;50.824;4.408;2023-01-27T03:34:58;101454.91;;;4.87;100.00
21100;BME280;10708;50.824;4.408;2023-01-27T03:40:01;101451.41;;;4.81;100.00
21100;BME280;10708;50.824;4.408;2023-01-27T03:45:23;101459.25;;;4.83;100.00
21100;BME280;10708;50.824;4.408;2023-01-27T03:50:42;101451.41;;;4.81;100.00
21100;BME280;10708;50.824;4.408;2023-01-27T03:55:45;101464.47;;;4.86;100.00
21100;BME280;10708;50.824;4.408;2023-01-27T04:00:51;101457.50;;;4.79;100.00
21100;BME280;10708;50.824;4.408;2023-01-27T04:05:54;101460.09;;;4.77;100.00
21100;BME280;10708;50.824;4.408;2023-01-27T04:11:14;101479.22;;;4.72;100.00
21100;BME280;10708;50.824;4.408;2023-01-27T04:16:35;101467.91;;;4.70;100.00
21100;BME280;10708;50.824;4.408;2023-01-27T04:21:38;101482.69;;;4.68;100.00
21100;BME280;10708;50.824;4.408;2023-01-27T04:26:41;101475.69;;;4.59;100.00
21100;BME280;10708;50.824;4.408;2023-01-27T04:31:45;101477.44;;;4.57;100.00
21100;BME280;10708;50.824;4.408;2023-01-27T04:36:47;101500.00;;;4.46;100.00
21100;BME280;10708;50.824;4.408;2023-01-27T04:41:50;101499.13;;;4.38;100.00
21100;BME280;10708;50.824;4.408;2023-01-27T04:46:54;101487.75;;;4.25;100.00
21100;BME280;10708;50.824;4.408;2023-01-27T04:51:56;101491.22;;;4.26;100.00
21100;BME280;10708;50.824;4.408;2023-01-27T04:57:01;101492.06;;;4.22;100.00
21100;BME280;10708;50.824;4.408;2023-01-27T05:02:05;101495.53;;;4.21;100.00
21100;BME280;10708;50.824;4.408;2023-01-27T05:07:08;101500.75;;;4.16;100.00
21100;BME280;10708;50.824;4.408;2023-01-27T05:12:10;101500.69;;;4.10;100.00
21100;BME280;10708;50.824;4.408;2023-01-27T05:17:14;101518.16;;;4.19;100.00
21100;BME280;10708;50.824;4.408;2023-01-27T05:22:17;101523.31;;;4.13;100.00
21100;BME280;10708;50.824;4.408;2023-01-27T05:27:19;101516.34;;;4.10;100.00
21100;BME280;10708;50.824;4.408;2023-01-27T05:32:23;101530.22;;;4.04;100.00
21100;BME280;10708;50.824;4.408;2023-01-27T05:37:25;101511.09;;;4.04;100.00
21100;BME280;10708;50.824;4.408;2023-01-27T05:42:28;101519.75;;;4.01;100.00
21100;BME280;10708;50.824;4.408;2023-01-27T05:47:31;101528.47;;;4.02;100.00
21100;BME280;10708;50.824;4.408;2023-01-27T05:52:34;101532.75;;;3.95;100.00
21100;BME280;10708;50.824;4.408;2023-01-27T05:57:36;101534.50;;;3.95;100.00
21100;BME280;10708;50.824;4.408;2023-01-27T06:02:40;101530.13;;;3.91;100.00
21100;BME280;10708;50.824;4.408;2023-01-27T06:07:42;101549.22;;;3.91;100.00
21100;BME280;10708;50.824;4.408;2023-01-27T06:12:45;101545.75;;;3.86;100.00
21100;BME280;10708;50.824;4.408;2023-01-27T06:17:48;101552.69;;;3.87;100.00
21100;BME280;10708;50.824;4.408;2023-01-27T06:22:50;101552.69;;;3.87;100.00
21100;BME280;10708;50.824;4.408;2023-01-27T06:27:53;101556.13;;;3.83;100.00
21100;BME280;10708;50.824;4.408;2023-01-27T06:32:57;101568.31;;;3.86;100.00
21100;BME280;10708;50.824;4.408;2023-01-27T06:38:01;101565.72;;;3.86;100.00
21100;BME280;10708;50.824;4.408;2023-01-27T06:43:10;101570.94;;;3.87;100.00
21100;BME280;10708;50.824;4.408;2023-01-27T06:48:13;101576.09;;;3.78;100.00
21100;BME280;10708;50.824;4.408;2023-01-27T06:53:16;101576.88;;;3.71;100.00
21100;BME280;10708;50.824;4.408;2023-01-27T06:58:18;101578.59;;;3.70;100.00
21100;BME280;10708;50.824;4.408;2023-01-27T07:03:22;101578.63;;;3.72;100.00
21100;BME280;10708;50.824;4.408;2023-01-27T07:08:24;101587.25;;;3.65;100.00
21100;BME280;10708;50.824;4.408;2023-01-27T07:13:27;101596.84;;;3.67;100.00
21100;BME280;10708;50.824;4.408;2023-01-27T07:18:30;101609.81;;;3.64;100.00
21100;BME280;10708;50.824;4.408;2023-01-27T07:23:33;101609.88;;;3.67;100.00
21100;BME280;10708;50.824;4.408;2023-01-27T07:28:35;101615.06;;;3.66;100.00
21100;BME280;10708;50.824;4.408;2023-01-27T07:33:39;101621.09;;;3.63;100.00
21100;BME280;10708;50.824;4.408;2023-01-27T07:38:41;101628.88;;;3.57;100.00
21100;BME280;10708;50.824;4.408;2023-01-27T07:43:43;101635.81;;;3.57;100.00
21100;BME280;10708;50.824;4.408;2023-01-27T07:48:47;101621.03;;;3.56;100.00
21100;BME280;10708;50.824;4.408;2023-01-27T07:53:49;101629.75;;;3.61;100.00
21100;BME280;10708;50.824;4.408;2023-01-27T07:58:53;101628.88;;;3.57;100.00
21100;BME280;10708;50.824;4.408;2023-01-27T08:03:57;101632.34;;;3.58;100.00
21100;BME280;10708;50.824;4.408;2023-01-27T08:08:59;101629.72;;;3.56;100.00
21100;BME280;10708;50.824;4.408;2023-01-27T08:14:02;101636.72;;;3.59;100.00
21100;BME280;10708;50.824;4.408;2023-01-27T08:19:06;101637.59;;;3.64;100.00
21100;BME280;10708;50.824;4.408;2023-01-27T08:24:09;101632.44;;;3.67;100.00
21100;BME280;10708;50.824;4.408;2023-01-27T08:29:12;101638.63;;;3.78;100.00
21100;BME280;10708;50.824;4.408;2023-01-27T08:34:16;101647.28;;;3.76;100.00
21100;BME280;10708;50.824;4.408;2023-01-27T08:39:18;101643.75;;;3.72;100.00
21100;BME280;10708;50.824;4.408;2023-01-27T08:44:21;101652.47;;;3.74;100.00
21100;BME280;10708;50.824;4.408;2023-01-27T08:49:25;101656.00;;;3.78;100.00
21100;BME280;10708;50.824;4.408;2023-01-27T08:54:28;101662.94;;;3.82;100.00
21100;BME280;10708;50.824;4.408;2023-01-27T08:59:30;101658.63;;;3.82;100.00
21100;BME280;10708;50.824;4.408;2023-01-27T09:04:34;101658.66;;;3.85;100.00
21100;BME280;10708;50.824;4.408;2023-01-27T09:09:41;101662.13;;;3.86;100.00
21100;BME280;10708;50.824;4.408;2023-01-27T09:14:43;101652.59;;;3.91;100.00
21100;BME280;10708;50.824;4.408;2023-01-27T09:19:47;101658.72;;;3.94;100.00
21100;BME280;10708;50.824;4.408;2023-01-27T09:24:49;101660.50;;;4.00;100.00
21100;BME280;10708;50.824;4.408;2023-01-27T09:29:51;101668.31;;;4.00;100.00
21100;BME280;10708;50.824;4.408;2023-01-27T09:34:55;101674.50;;;4.11;100.00
21100;BME280;10708;50.824;4.408;2023-01-27T09:40:01;101684.09;;;4.14;100.00
21100;BME280;10708;50.824;4.408;2023-01-27T09:45:15;101681.47;;;4.12;100.00
21100;BME280;10708;50.824;4.408;2023-01-27T09:50:41;101688.44;;;4.15;100.00
21100;BME280;10708;50.824;4.408;2023-01-27T09:55:48;101680.66;;;4.21;100.00
21100;BME280;10708;50.824;4.408;2023-01-27T10:01:03;101702.41;;;4.23;100.00
21100;BME280;10708;50.824;4.408;2023-01-27T10:06:33;101688.53;;;4.24;100.00
21100;BME280;10708;50.824;4.408;2023-01-27T10:11:47;101685.97;;;4.31;100.00
21100;BME280;10708;50.824;4.408;2023-01-27T10:17:10;101684.31;;;4.38;100.00
21100;BME280;10708;50.824;4.408;2023-01-27T10:22:23;101692.97;;;4.40;100.00
21100;BME280;10708;50.824;4.408;2023-01-27T10:27:34;101678.25;;;4.43;100.00
21100;BME280;10708;50.824;4.408;2023-01-27T10:32:43;101685.19;;;4.43;100.00
21100;BME280;10708;50.824;4.408;2023-01-27T10:37:57;101670.47;;;4.53;100.00
21100;BME280;10708;50.824;4.408;2023-01-27T10:43:07;101678.34;;;4.56;100.00
21100;BME280;10708;50.824;4.408;2023-01-27T10:48:32;101680.06;;;4.54;100.00
21100;BME280;10708;50.824;4.408;2023-01-27T10:53:44;101680.06;;;4.54;100.00
21100;BME280;10708;50.824;4.408;2023-01-27T10:58:56;101674.84;;;4.55;100.00
21100;BME280;10708;50.824;4.408;2023-01-27T11:04:10;101666.13;;;4.52;100.00
21100;BME280;10708;50.824;4.408;2023-01-27T11:09:22;101661.03;;;4.68;100.00
21100;BME280;10708;50.824;4.408;2023-01-27T11:14:29;101663.69;;;4.82;100.00
21100;BME280;10708;50.824;4.408;2023-01-27T11:19:41;101659.34;;;4.84;100.00
21100;BME280;10708;50.824;4.408;2023-01-27T11:24:51;101653.31;;;4.93;100.00
21100;BME280;10708;50.824;4.408;2023-01-27T11:29:57;101657.72;;;5.06;100.00
21100;BME280;10708;50.824;4.408;2023-01-27T11:35:04;101649.91;;;5.09;100.00
21100;BME280;10708;50.824;4.408;2023-01-27T11:40:16;101643.81;;;5.08;100.00
21100;BME280;10708;50.824;4.408;2023-01-27T11:45:20;101637.75;;;5.22;100.00
21100;BME280;10708;50.824;4.408;2023-01-27T11:50:25;101642.97;;;5.22;100.00
21100;BME280;10708;50.824;4.408;2023-01-27T11:55:36;101636.00;;;5.16;100.00
21100;BME280;10708;50.824;4.408;2023-01-27T12:00:42;101639.50;;;5.24;100.00
21100;BME280;10708;50.824;4.408;2023-01-27T12:05:50;101642.09;;;5.23;100.00
21100;BME280;10708;50.824;4.408;2023-01-27T12:11:17;101643.84;;;5.17;100.00
21100;BME280;10708;50.824;4.408;2023-01-27T12:16:20;101649.94;;;5.16;100.00
21100;BME280;10708;50.824;4.408;2023-01-27T12:21:34;101650.75;;;5.11;100.00
21100;BME280;10708;50.824;4.408;2023-01-27T12:26:43;101639.44;;;5.06;100.00
21100;BME280;10708;50.824;4.408;2023-01-27T12:31:47;101642.91;;;5.02;100.00
21100;BME280;10708;50.824;4.408;2023-01-27T12:36:51;101650.72;;;4.99;100.00
21100;BME280;10708;50.824;4.408;2023-01-27T12:41:55;101639.41;;;4.95;100.00
21100;BME280;10708;50.824;4.408;2023-01-27T12:47:00;101628.06;;;4.99;100.00
21100;BME280;10708;50.824;4.408;2023-01-27T12:52:04;101622.03;;;4.99;100.00
21100;BME280;10708;50.824;4.408;2023-01-27T12:57:12;101614.16;;;5.00;100.00
21100;BME280;10708;50.824;4.408;2023-01-27T13:02:18;101614.16;;;4.93;100.00
21100;BME280;10708;50.824;4.408;2023-01-27T13:07:24;101625.47;;;4.95;100.00
21100;BME280;10708;50.824;4.408;2023-01-27T13:12:34;101614.13;;;4.90;100.00
21100;BME280;10708;50.824;4.408;2023-01-27T13:17:48;101608.91;;;4.87;100.00
21100;BME280;10708;50.824;4.408;2023-01-27T13:22:53;101608.91;;;4.91;100.00
21100;BME280;10708;50.824;4.408;2023-01-27T13:28:00;101615.00;;;4.92;100.00
21100;BME280;10708;50.824;4.408;2023-01-27T13:33:20;101618.44;;;4.81;100.00
21100;BME280;10708;50.824;4.408;2023-01-27T13:38:30;101615.00;;;4.87;100.00
21100;BME280;10708;50.824;4.408;2023-01-27T13:43:38;101612.34;;;4.82;100.00
21100;BME280;10708;50.824;4.408;2023-01-27T13:48:46;101618.44;;;4.83;100.00
21100;BME280;10708;50.824;4.408;2023-01-27T13:53:56;101628.06;;;4.87;100.00
21100;BME280;10708;50.824;4.408;2023-01-27T13:59:07;101621.94;;;4.79;100.00
21100;BME280;10708;50.824;4.408;2023-01-27T14:04:29;101622.84;;;4.89;100.00
21100;BME280;10708;50.824;4.408;2023-01-27T14:09:48;101638.50;;;4.87;100.00
21100;BME280;10708;50.824;4.408;2023-01-27T14:15:06;101649.78;;;4.83;100.00
21100;BME280;10708;50.824;4.408;2023-01-27T14:25:54;101655.03;;;4.86;100.00
21100;BME280;10708;50.824;4.408;2023-01-27T14:31:05;101657.63;;;4.86;100.00
21100;BME280;10708;50.824;4.408;2023-01-27T14:36:17;101658.41;;;4.70;100.00
21100;BME280;10708;50.824;4.408;2023-01-27T14:41:34;101673.13;;;4.60;100.00
21100;BME280;10708;50.824;4.408;2023-01-27T14:46:55;101668.00;;;4.74;100.00
21100;BME280;10708;50.824;4.408;2023-01-27T14:52:04;101661.88;;;4.72;100.00
21100;BME280;10708;50.824;4.408;2023-01-27T14:57:24;101665.38;;;4.68;100.00
21100;BME280;10708;50.824;4.408;2023-01-27T15:02:41;101662.63;;;4.50;100.00
21100;BME280;10708;50.824;4.408;2023-01-27T15:07:51;101667.88;;;4.54;100.00
21100;BME280;10708;50.824;4.408;2023-01-27T15:18:54;101674.81;;;4.51;100.00
21100;BME280;10708;50.824;4.408;2023-01-27T15:24:14;101690.50;;;4.60;100.00
21100;BME280;10708;50.824;4.408;2023-01-27T15:29:24;101693.00;;;4.43;100.00
21100;BME280;10708;50.824;4.408;2023-01-27T15:34:29;101697.44;;;4.53;100.00
21100;BME280;10708;50.824;4.408;2023-01-27T15:39:31;101710.38;;;4.38;100.00
21100;BME280;10708;50.824;4.408;2023-01-27T15:45:00;101706.09;;;4.48;100.00
21100;BME280;10708;50.824;4.408;2023-01-27T15:50:10;101714.78;;;4.50;100.00
21100;BME280;10708;50.824;4.408;2023-01-27T15:55:25;101715.69;;;4.49;100.00
21100;BME280;10708;50.824;4.408;2023-01-27T16:00:38;101712.16;;;4.43;100.00
21100;BME280;10708;50.824;4.408;2023-01-27T16:05:52;101714.75;;;4.43;100.00
21100;BME280;10708;50.824;4.408;2023-01-27T16:11:21;101721.66;;;4.35;100.00
21100;BME280;10708;50.824;4.408;2023-01-27T16:16:31;101709.47;;;4.34;100.00
21100;BME280;10708;50.824;4.408;2023-01-27T16:21:44;101720.72;;;4.26;100.00
21100;BME280;10708;50.824;4.408;2023-01-27T16:26:53;101730.31;;;4.33;100.00
21100;BME280;10708;50.824;4.408;2023-01-27T16:32:14;101729.44;;;4.32;100.00
21100;BME280;10708;50.824;4.408;2023-01-27T16:37:26;101742.53;;;4.35;100.00
21100;BME280;10708;50.824;4.408;2023-01-27T16:42:35;101743.31;;;4.30;100.00
21100;BME280;10708;50.824;4.408;2023-01-27T16:47:42;101753.78;;;4.28;100.00
21100;BME280;10708;50.824;4.408;2023-01-27T16:52:51;101752.91;;;4.28;100.00
21100;BME280;10708;50.824;4.408;2023-01-27T16:57:54;101762.41;;;4.24;100.00
21100;BME280;10708;50.824;4.408;2023-01-27T17:03:00;101757.22;;;4.26;100.00
21100;BME280;10708;50.824;4.408;2023-01-27T17:08:21;101765.06;;;4.27;100.00
21100;BME280;10708;50.824;4.408;2023-01-27T17:13:29;101765.00;;;4.23;100.00
21100;BME280;10708;50.824;4.408;2023-01-27T17:18:34;101782.34;;;4.16;100.00
21100;BME280;10708;50.824;4.408;2023-01-27T17:23:38;101786.78;;;4.26;100.00
21100;BME280;10708;50.824;4.408;2023-01-27T17:28:42;101792.03;;;4.28;100.00
21100;BME280;10708;50.824;4.408;2023-01-27T17:33:48;101785.97;;;4.33;100.00
21100;BME280;10708;50.824;4.408;2023-01-27T17:38:53;101788.53;;;4.27;100.00
21100;BME280;10708;50.824;4.408;2023-01-27T17:43:57;101791.19;;;4.33;100.00
21100;BME280;10708;50.824;4.408;2023-01-27T17:49:03;101798.16;;;4.34;100.00
21100;BME280;10708;50.824;4.408;2023-01-27T17:54:19;101799.91;;;4.35;100.00
21100;BME280;10708;50.824;4.408;2023-01-27T17:59:24;101810.38;;;4.38;100.00
21100;BME280;10708;50.824;4.408;2023-01-27T18:04:29;101804.31;;;4.42;100.00
21100;BME280;10708;50.824;4.408;2023-01-27T18:09:42;101807.78;;;4.38;100.00
21100;BME280;10708;50.824;4.408;2023-01-27T18:14:44;101793.03;;;4.43;100.00
21100;BME280;10708;50.824;4.408;2023-01-27T18:19:52;101808.72;;;4.47;100.00
21100;BME280;10708;50.824;4.408;2023-01-27T18:25:14;101808.72;;;4.48;100.00
21100;BME280;10708;50.824;4.408;2023-01-27T18:30:19;101809.56;;;4.45;100.00
21100;BME280;10708;50.824;4.408;2023-01-27T18:35:25;101813.91;;;4.45;100.00
21100;BME280;10708;50.824;4.408;2023-01-27T18:40:31;101814.75;;;4.44;100.00
21100;BME280;10708;50.824;4.408;2023-01-27T18:45:34;101814.75;;;4.44;100.00
21100;BME280;10708;50.824;4.408;2023-01-27T18:50:39;101821.69;;;4.40;100.00
21100;BME280;10708;50.824;4.408;2023-01-27T18:55:46;101828.75;;;4.49;100.00
21100;BME280;10708;50.824;4.408;2023-01-27T19:00:51;101817.44;;;4.49;100.00
21100;BME280;10708;50.824;4.408;2023-01-27T19:05:54;101833.88;;;4.43;100.00
21100;BME280;10708;50.824;4.408;2023-01-27T19:10:58;101833.88;;;4.43;100.00
21100;BME280;10708;50.824;4.408;2023-01-27T19:16:01;101839.06;;;4.37;100.00
21100;BME280;10708;50.824;4.408;2023-01-27T19:21:04;101847.66;;;4.27;100.00
21100;BME280;10708;50.824;4.408;2023-01-27T19:26:14;101851.22;;;4.36;100.00
21100;BME280;10708;50.824;4.408;2023-01-27T19:31:19;101844.28;;;4.38;100.00
21100;BME280;10708;50.824;4.408;2023-01-27T19:36:22;101855.56;;;4.36;100.00
21100;BME280;10708;50.824;4.408;2023-01-27T19:41:28;101860.72;;;4.28;100.00
21100;BME280;10708;50.824;4.408;2023-01-27T19:46:32;101857.22;;;4.31;100.00
21100;BME280;10708;50.824;4.408;2023-01-27T19:51:35;101854.53;;;4.19;100.00
21100;BME280;10708;50.824;4.408;2023-01-27T19:56:39;101865.88;;;4.25;100.00
21100;BME280;10708;50.824;4.408;2023-01-27T20:01:42;101865.81;;;4.18;100.00
21100;BME280;10708;50.824;4.408;2023-01-27T20:06:45;101861.44;;;4.17;100.00
21100;BME280;10708;50.824;4.408;2023-01-27T20:11:52;101873.59;;;4.15;100.00
21100;BME280;10708;50.824;4.408;2023-01-27T20:16:55;101864.94;;;4.17;100.00
21100;BME280;10708;50.824;4.408;2023-01-27T20:22:00;101881.56;;;4.27;100.00
21100;BME280;10708;50.824;4.408;2023-01-27T20:27:04;101879.66;;;4.14;100.00
21100;BME280;10708;50.824;4.408;2023-01-27T20:32:07;101878.84;;;4.21;100.00
21100;BME280;10708;50.824;4.408;2023-01-27T20:37:12;101872.72;;;4.16;100.00
21100;BME280;10708;50.824;4.408;2023-01-27T20:42:19;101875.38;;;4.20;100.00
21100;BME280;10708;50.824;4.408;2023-01-27T20:47:22;101867.56;;;4.22;100.00
21100;BME280;10708;50.824;4.408;2023-01-27T20:52:24;101862.38;;;4.23;100.00
21100;BME280;10708;50.824;4.408;2023-01-27T20:57:28;101864.97;;;4.23;100.00
21100;BME280;10708;50.824;4.408;2023-01-27T21:02:31;101864.94;;;4.20;100.00
21100;BME280;10708;50.824;4.408;2023-01-27T21:07:33;101872.78;;;4.19;100.00
21100;BME280;10708;50.824;4.408;2023-01-27T21:12:37;101868.44;;;4.19;100.00
21100;BME280;10708;50.824;4.408;2023-01-27T21:17:40;101871.78;;;4.09;100.00
21100;BME280;10708;50.824;4.408;2023-01-27T21:22:43;101877.03;;;4.12;100.00
21100;BME280;10708;50.824;4.408;2023-01-27T21:27:49;101875.28;;;4.13;100.00
21100;BME280;10708;50.824;4.408;2023-01-27T21:32:51;101871.78;;;4.11;100.00
21100;BME280;10708;50.824;4.408;2023-01-27T21:37:54;101866.66;;;4.17;100.00
21100;BME280;10708;50.824;4.408;2023-01-27T21:42:58;101870.03;;;4.09;100.00
21100;BME280;10708;50.824;4.408;2023-01-27T21:48:17;101858.66;;;4.03;100.00
21100;BME280;10708;50.824;4.408;2023-01-27T21:53:20;101850.00;;;4.05;100.00
21100;BME280;10708;50.824;4.408;2023-01-27T21:58:24;101850.03;;;4.07;100.00
21100;BME280;10708;50.824;4.408;2023-01-27T22:03:29;101856.03;;;4.01;100.00
21100;BME280;10708;50.824;4.408;2023-01-27T22:08:32;101846.53;;;4.05;100.00
21100;BME280;10708;50.824;4.408;2023-01-27T22:13:36;101851.75;;;4.05;100.00
21100;BME280;10708;50.824;4.408;2023-01-27T22:18:39;101852.63;;;4.05;100.00
21100;BME280;10708;50.824;4.408;2023-01-27T22:23:45;101850.81;;;4.01;100.00
21100;BME280;10708;50.824;4.408;2023-01-27T22:28:49;101858.75;;;4.07;100.00
21100;BME280;10708;50.824;4.408;2023-01-27T22:33:52;101859.59;;;4.06;100.00
21100;BME280;10708;50.824;4.408;2023-01-27T22:38:55;101861.31;;;4.04;100.00
21100;BME280;10708;50.824;4.408;2023-01-27T22:43:59;101851.69;;;4.02;100.00
21100;BME280;10708;50.824;4.408;2023-01-27T22:49:01;101850.84;;;4.03;100.00
21100;BME280;10708;50.824;4.408;2023-01-27T22:54:04;101843.91;;;4.03;100.00
21100;BME280;10708;50.824;4.408;2023-01-27T22:59:11;101842.19;;;4.05;100.00
21100;BME280;10708;50.824;4.408;2023-01-27T23:04:14;101844.81;;;4.05;100.00
21100;BME280;10708;50.824;4.408;2023-01-27T23:09:17;101836.97;;;4.04;100.00
21100;BME280;10708;50.824;4.408;2023-01-27T23:14:21;101831.75;;;4.05;100.00
21100;BME280;10708;50.824;4.408;2023-01-27T23:19:29;101833.47;;;4.03;100.00
21100;BME280;10708;50.824;4.408;2023-01-27T23:24:32;101844.75;;;4.02;100.00
21100;BME280;10708;50.824;4.408;2023-01-27T23:29:36;101856.09;;;4.06;100.00
21100;BME280;10708;50.824;4.408;2023-01-27T23:34:38;101856.09;;;4.06;100.00
21100;BME280;10708;50.824;4.408;2023-01-27T23:39:40;101858.75;;;4.07;100.00
21100;BME280;10708;50.824;4.408;2023-01-27T23:44:49;101861.28;;;4.03;100.00
21100;BME280;10708;50.824;4.408;2023-01-27T23:49:52;101857.69;;;3.93;100.00
21100;BME280;10708;50.824;4.408;2023-01-27T23:54:54;101857.78;;;4.02;100.00
21100;BME280;10708;50.824;4.408;2023-01-27T23:59:58;101856.94;;;4.03;100.00
